sensor_id;sensor_type;location;lat;lon;timestamp;P1;P2;P0
73973;PMS5003;62336;-26.094;27.994;2022-09-09T00:00:16;60;54;
73973;PMS5003;62336;-26.094;27.994;2022-09-09T00:02:42;52;50;
73973;PMS5003;62336;-26.094;27.994;2022-09-09T00:05:09;49;46;
73973;PMS5003;62336;-26.094;27.994;2022-09-09T00:07:35;56;53;
73973;PMS5003;62336;-26.094;27.994;2022-09-09T00:09:59;48;45;
73973;PMS5003;62336;-26.094;27.994;2022-09-09T00:12:24;55;55;
73973;PMS5003;62336;-26.094;27.994;2022-09-09T00:14:49;44;44;
73973;PMS5003;62336;-26.094;27.994;2022-09-09T00:17:16;49;48;
73973;PMS5003;62336;-26.094;27.994;2022-09-09T00:19:41;49;45;
73973;PMS5003;62336;-26.094;27.994;2022-09-09T00:22:07;45;44;
73973;PMS5003;62336;-26.094;27.994;2022-09-09T00:24:32;46;44;
73973;PMS5003;62336;-26.094;27.994;2022-09-09T00:26:57;49;44;
73973;PMS5003;62336;-26.094;27.994;2022-09-09T00:29:22;43;40;
73973;PMS5003;62336;-26.094;27.994;2022-09-09T00:31:47;42;42;
73973;PMS5003;62336;-26.094;27.994;2022-09-09T00:34:13;36;35;
73973;PMS5003;62336;-26.094;27.994;2022-09-09T00:36:38;42;41;
73973;PMS5003;62336;-26.094;27.994;2022-09-09T00:39:04;40;38;
73973;PMS5003;62336;-26.094;27.994;2022-09-09T00:41:31;41;40;
73973;PMS5003;62336;-26.094;27.994;2022-09-09T00:43:56;43;40;
73973;PMS5003;62336;-26.094;27.994;2022-09-09T00:46:24;44;43;
73973;PMS5003;62336;-26.094;27.994;2022-09-09T00:48:47;36;36;
73973;PMS5003;62336;-26.094;27.994;2022-09-09T00:51:11;42;38;
73973;PMS5003;62336;-26.094;27.994;2022-09-09T00:53:38;45;43;
73973;PMS5003;62336;-26.094;27.994;2022-09-09T00:56:02;37;36;
73973;PMS5003;62336;-26.094;27.994;2022-09-09T00:58:26;38;34;
73973;PMS5003;62336;-26.094;27.994;2022-09-09T01:00:52;41;37;
73973;PMS5003;62336;-26.094;27.994;2022-09-09T01:03:19;36;35;
73973;PMS5003;62336;-26.094;27.994;2022-09-09T01:05:43;42;42;
73973;PMS5003;62336;-26.094;27.994;2022-09-09T01:08:10;42;39;
73973;PMS5003;62336;-26.094;27.994;2022-09-09T01:10:36;44;42;
73973;PMS5003;62336;-26.094;27.994;2022-09-09T01:12:58;36;33;
73973;PMS5003;62336;-26.094;27.994;2022-09-09T01:15:24;42;40;
73973;PMS5003;62336;-26.094;27.994;2022-09-09T01:17:52;38;38;
73973;PMS5003;62336;-26.094;27.994;2022-09-09T01:20:15;46;43;
73973;PMS5003;62336;-26.094;27.994;2022-09-09T01:22:42;40;37;
73973;PMS5003;62336;-26.094;27.994;2022-09-09T01:25:09;43;37;
73973;PMS5003;62336;-26.094;27.994;2022-09-09T01:27:30;39;38;
73973;PMS5003;62336;-26.094;27.994;2022-09-09T01:29:55;40;38;
73973;PMS5003;62336;-26.094;27.994;2022-09-09T01:34:45;40;39;
73973;PMS5003;62336;-26.094;27.994;2022-09-09T01:37:12;37;35;
73973;PMS5003;62336;-26.094;27.994;2022-09-09T01:39:37;33;31;
73973;PMS5003;62336;-26.094;27.994;2022-09-09T01:42:03;35;34;
73973;PMS5003;62336;-26.094;27.994;2022-09-09T01:44:29;38;35;
73973;PMS5003;62336;-26.094;27.994;2022-09-09T01:46:54;40;38;
73973;PMS5003;62336;-26.094;27.994;2022-09-09T01:49:19;36;33;
73973;PMS5003;62336;-26.094;27.994;2022-09-09T01:51:46;40;37;
73973;PMS5003;62336;-26.094;27.994;2022-09-09T01:54:10;40;39;
73973;PMS5003;62336;-26.094;27.994;2022-09-09T01:56:39;38;36;
73973;PMS5003;62336;-26.094;27.994;2022-09-09T01:59:05;41;38;
73973;PMS5003;62336;-26.094;27.994;2022-09-09T02:01:29;40;39;
73973;PMS5003;62336;-26.094;27.994;2022-09-09T02:03:53;39;36;
73973;PMS5003;62336;-26.094;27.994;2022-09-09T02:06:21;41;39;
73973;PMS5003;62336;-26.094;27.994;2022-09-09T02:08:45;44;42;
73973;PMS5003;62336;-26.094;27.994;2022-09-09T02:11:11;43;41;
73973;PMS5003;62336;-26.094;27.994;2022-09-09T02:13:36;43;39;
73973;PMS5003;62336;-26.094;27.994;2022-09-09T02:16:00;39;38;
73973;PMS5003;62336;-26.094;27.994;2022-09-09T02:18:26;42;41;
73973;PMS5003;62336;-26.094;27.994;2022-09-09T02:20:51;39;38;
73973;PMS5003;62336;-26.094;27.994;2022-09-09T02:23:16;42;40;
73973;PMS5003;62336;-26.094;27.994;2022-09-09T02:25:42;40;36;
73973;PMS5003;62336;-26.094;27.994;2022-09-09T02:28:08;39;36;
73973;PMS5003;62336;-26.094;27.994;2022-09-09T02:30:33;43;43;
73973;PMS5003;62336;-26.094;27.994;2022-09-09T02:32:59;41;40;
73973;PMS5003;62336;-26.094;27.994;2022-09-09T02:35:24;44;41;
73973;PMS5003;62336;-26.094;27.994;2022-09-09T02:37:50;39;37;
73973;PMS5003;62336;-26.094;27.994;2022-09-09T02:40:15;39;38;
73973;PMS5003;62336;-26.094;27.994;2022-09-09T02:42:41;43;42;
73973;PMS5003;62336;-26.094;27.994;2022-09-09T02:45:07;44;40;
73973;PMS5003;62336;-26.094;27.994;2022-09-09T02:47:33;42;40;
73973;PMS5003;62336;-26.094;27.994;2022-09-09T02:50:00;44;40;
73973;PMS5003;62336;-26.094;27.994;2022-09-09T02:52:25;44;42;
73973;PMS5003;62336;-26.094;27.994;2022-09-09T02:54:48;40;38;
73973;PMS5003;62336;-26.094;27.994;2022-09-09T02:57:16;42;39;
73973;PMS5003;62336;-26.094;27.994;2022-09-09T02:59:39;45;43;
73973;PMS5003;62336;-26.094;27.994;2022-09-09T03:02:05;44;40;
73973;PMS5003;62336;-26.094;27.994;2022-09-09T03:04:30;39;38;
73973;PMS5003;62336;-26.094;27.994;2022-09-09T03:06:56;39;38;
73973;PMS5003;62336;-26.094;27.994;2022-09-09T03:09:21;45;43;
73973;PMS5003;62336;-26.094;27.994;2022-09-09T03:11:46;40;39;
73973;PMS5003;62336;-26.094;27.994;2022-09-09T03:14:11;40;39;
73973;PMS5003;62336;-26.094;27.994;2022-09-09T03:16:36;39;39;
73973;PMS5003;62336;-26.094;27.994;2022-09-09T03:19:01;37;36;
73973;PMS5003;62336;-26.094;27.994;2022-09-09T03:21:27;39;38;
73973;PMS5003;62336;-26.094;27.994;2022-09-09T03:23:53;46;42;
73973;PMS5003;62336;-26.094;27.994;2022-09-09T03:26:19;44;40;
73973;PMS5003;62336;-26.094;27.994;2022-09-09T03:28:43;44;43;
73973;PMS5003;62336;-26.094;27.994;2022-09-09T03:31:09;49;45;
73973;PMS5003;62336;-26.094;27.994;2022-09-09T03:33:35;46;43;
73973;PMS5003;62336;-26.094;27.994;2022-09-09T03:36:00;46;43;
73973;PMS5003;62336;-26.094;27.994;2022-09-09T03:38:25;45;42;
73973;PMS5003;62336;-26.094;27.994;2022-09-09T03:40:52;44;41;
73973;PMS5003;62336;-26.094;27.994;2022-09-09T03:43:16;44;43;
73973;PMS5003;62336;-26.094;27.994;2022-09-09T03:45:42;46;44;
73973;PMS5003;62336;-26.094;27.994;2022-09-09T03:48:06;42;38;
73973;PMS5003;62336;-26.094;27.994;2022-09-09T03:50:32;46;42;
73973;PMS5003;62336;-26.094;27.994;2022-09-09T03:52:58;49;45;
73973;PMS5003;62336;-26.094;27.994;2022-09-09T03:55:23;40;39;
73973;PMS5003;62336;-26.094;27.994;2022-09-09T03:57:48;47;43;
73973;PMS5003;62336;-26.094;27.994;2022-09-09T04:00:14;46;43;
73973;PMS5003;62336;-26.094;27.994;2022-09-09T04:02:39;47;44;
73973;PMS5003;62336;-26.094;27.994;2022-09-09T04:05:05;46;45;
73973;PMS5003;62336;-26.094;27.994;2022-09-09T04:07:30;47;45;
73973;PMS5003;62336;-26.094;27.994;2022-09-09T04:09:55;44;41;
73973;PMS5003;62336;-26.094;27.994;2022-09-09T04:12:21;47;44;
73973;PMS5003;62336;-26.094;27.994;2022-09-09T04:14:46;49;48;
73973;PMS5003;62336;-26.094;27.994;2022-09-09T04:17:12;38;38;
73973;PMS5003;62336;-26.094;27.994;2022-09-09T04:19:37;49;45;
73973;PMS5003;62336;-26.094;27.994;2022-09-09T04:22:02;46;44;
73973;PMS5003;62336;-26.094;27.994;2022-09-09T04:24:28;48;47;
73973;PMS5003;62336;-26.094;27.994;2022-09-09T04:26:53;45;44;
73973;PMS5003;62336;-26.094;27.994;2022-09-09T04:29:18;50;47;
73973;PMS5003;62336;-26.094;27.994;2022-09-09T04:31:44;45;44;
73973;PMS5003;62336;-26.094;27.994;2022-09-09T04:34:10;48;46;
73973;PMS5003;62336;-26.094;27.994;2022-09-09T04:36:35;48;47;
73973;PMS5003;62336;-26.094;27.994;2022-09-09T04:39:00;52;49;
73973;PMS5003;62336;-26.094;27.994;2022-09-09T04:41:26;56;49;
73973;PMS5003;62336;-26.094;27.994;2022-09-09T04:43:52;52;49;
73973;PMS5003;62336;-26.094;27.994;2022-09-09T04:46:17;56;52;
73973;PMS5003;62336;-26.094;27.994;2022-09-09T04:48:42;55;49;
73973;PMS5003;62336;-26.094;27.994;2022-09-09T04:51:09;50;49;
73973;PMS5003;62336;-26.094;27.994;2022-09-09T04:53:33;56;54;
73973;PMS5003;62336;-26.094;27.994;2022-09-09T04:56:03;50;48;
73973;PMS5003;62336;-26.094;27.994;2022-09-09T04:58:24;52;48;
73973;PMS5003;62336;-26.094;27.994;2022-09-09T05:00:49;56;52;
73973;PMS5003;62336;-26.094;27.994;2022-09-09T05:03:14;49;49;
73973;PMS5003;62336;-26.094;27.994;2022-09-09T05:05:40;54;50;
73973;PMS5003;62336;-26.094;27.994;2022-09-09T05:08:07;52;49;
73973;PMS5003;62336;-26.094;27.994;2022-09-09T05:10:32;54;51;
73973;PMS5003;62336;-26.094;27.994;2022-09-09T05:12:57;54;49;
73973;PMS5003;62336;-26.094;27.994;2022-09-09T05:15:22;52;51;
73973;PMS5003;62336;-26.094;27.994;2022-09-09T05:17:47;61;56;
73973;PMS5003;62336;-26.094;27.994;2022-09-09T05:20:13;60;55;
73973;PMS5003;62336;-26.094;27.994;2022-09-09T05:22:38;50;49;
73973;PMS5003;62336;-26.094;27.994;2022-09-09T05:25:04;53;50;
73973;PMS5003;62336;-26.094;27.994;2022-09-09T05:27:29;55;53;
73973;PMS5003;62336;-26.094;27.994;2022-09-09T05:29:55;54;52;
73973;PMS5003;62336;-26.094;27.994;2022-09-09T05:32:20;58;53;
73973;PMS5003;62336;-26.094;27.994;2022-09-09T05:34:45;60;56;
73973;PMS5003;62336;-26.094;27.994;2022-09-09T05:37:10;59;51;
73973;PMS5003;62336;-26.094;27.994;2022-09-09T05:39:36;54;53;
73973;PMS5003;62336;-26.094;27.994;2022-09-09T05:42:01;51;48;
73973;PMS5003;62336;-26.094;27.994;2022-09-09T05:44:27;55;51;
73973;PMS5003;62336;-26.094;27.994;2022-09-09T05:46:52;48;47;
73973;PMS5003;62336;-26.094;27.994;2022-09-09T05:49:17;53;50;
73973;PMS5003;62336;-26.094;27.994;2022-09-09T05:51:42;48;44;
73973;PMS5003;62336;-26.094;27.994;2022-09-09T05:54:07;58;49;
73973;PMS5003;62336;-26.094;27.994;2022-09-09T05:56:33;47;45;
73973;PMS5003;62336;-26.094;27.994;2022-09-09T05:58:58;43;42;
73973;PMS5003;62336;-26.094;27.994;2022-09-09T06:01:25;43;40;
73973;PMS5003;62336;-26.094;27.994;2022-09-09T06:03:50;47;44;
73973;PMS5003;62336;-26.094;27.994;2022-09-09T06:06:16;47;46;
73973;PMS5003;62336;-26.094;27.994;2022-09-09T06:08:41;41;37;
73973;PMS5003;62336;-26.094;27.994;2022-09-09T06:11:07;44;41;
73973;PMS5003;62336;-26.094;27.994;2022-09-09T06:13:31;42;39;
73973;PMS5003;62336;-26.094;27.994;2022-09-09T06:15:57;47;44;
73973;PMS5003;62336;-26.094;27.994;2022-09-09T06:18:22;44;42;
73973;PMS5003;62336;-26.094;27.994;2022-09-09T06:23:13;46;41;
73973;PMS5003;62336;-26.094;27.994;2022-09-09T06:25:38;48;44;
73973;PMS5003;62336;-26.094;27.994;2022-09-09T06:28:04;49;44;
73973;PMS5003;62336;-26.094;27.994;2022-09-09T06:30:29;41;38;
73973;PMS5003;62336;-26.094;27.994;2022-09-09T06:32:55;42;39;
73973;PMS5003;62336;-26.094;27.994;2022-09-09T06:35:19;48;46;
73973;PMS5003;62336;-26.094;27.994;2022-09-09T06:37:45;44;40;
73973;PMS5003;62336;-26.094;27.994;2022-09-09T06:40:10;54;47;
73973;PMS5003;62336;-26.094;27.994;2022-09-09T06:42:36;47;47;
73973;PMS5003;62336;-26.094;27.994;2022-09-09T06:45:00;44;40;
73973;PMS5003;62336;-26.094;27.994;2022-09-09T06:47:27;44;40;
73973;PMS5003;62336;-26.094;27.994;2022-09-09T06:49:52;42;41;
73973;PMS5003;62336;-26.094;27.994;2022-09-09T06:52:17;44;43;
73973;PMS5003;62336;-26.094;27.994;2022-09-09T06:54:43;49;45;
73973;PMS5003;62336;-26.094;27.994;2022-09-09T06:57:09;38;37;
73973;PMS5003;62336;-26.094;27.994;2022-09-09T06:59:34;42;39;
73973;PMS5003;62336;-26.094;27.994;2022-09-09T07:02:00;43;42;
73973;PMS5003;62336;-26.094;27.994;2022-09-09T07:04:26;54;49;
73973;PMS5003;62336;-26.094;27.994;2022-09-09T07:06:51;54;52;
73973;PMS5003;62336;-26.094;27.994;2022-09-09T07:09:16;47;44;
73973;PMS5003;62336;-26.094;27.994;2022-09-09T07:11:42;49;46;
73973;PMS5003;62336;-26.094;27.994;2022-09-09T07:14:07;51;46;
73973;PMS5003;62336;-26.094;27.994;2022-09-09T07:16:32;56;55;
73973;PMS5003;62336;-26.094;27.994;2022-09-09T07:18:58;55;54;
73973;PMS5003;62336;-26.094;27.994;2022-09-09T07:21:24;61;60;
73973;PMS5003;62336;-26.094;27.994;2022-09-09T07:23:49;69;62;
73973;PMS5003;62336;-26.094;27.994;2022-09-09T07:26:16;63;60;
73973;PMS5003;62336;-26.094;27.994;2022-09-09T07:28:40;62;59;
73973;PMS5003;62336;-26.094;27.994;2022-09-09T07:31:06;74;70;
73973;PMS5003;62336;-26.094;27.994;2022-09-09T07:33:32;75;69;
73973;PMS5003;62336;-26.094;27.994;2022-09-09T07:38:21;70;67;
73973;PMS5003;62336;-26.094;27.994;2022-09-09T07:40:47;71;66;
73973;PMS5003;62336;-26.094;27.994;2022-09-09T07:43:12;70;63;
73973;PMS5003;62336;-26.094;27.994;2022-09-09T07:45:38;64;61;
73973;PMS5003;62336;-26.094;27.994;2022-09-09T07:48:03;67;63;
73973;PMS5003;62336;-26.094;27.994;2022-09-09T07:50:29;71;66;
73973;PMS5003;62336;-26.094;27.994;2022-09-09T07:52:54;66;59;
73973;PMS5003;62336;-26.094;27.994;2022-09-09T07:55:20;68;63;
73973;PMS5003;62336;-26.094;27.994;2022-09-09T07:57:45;64;62;
73973;PMS5003;62336;-26.094;27.994;2022-09-09T08:00:11;54;50;
73973;PMS5003;62336;-26.094;27.994;2022-09-09T08:02:35;53;52;
73973;PMS5003;62336;-26.094;27.994;2022-09-09T08:05:01;66;59;
73973;PMS5003;62336;-26.094;27.994;2022-09-09T08:07:26;56;52;
73973;PMS5003;62336;-26.094;27.994;2022-09-09T08:09:52;53;48;
73973;PMS5003;62336;-26.094;27.994;2022-09-09T08:12:17;55;52;
73973;PMS5003;62336;-26.094;27.994;2022-09-09T08:14:42;52;48;
73973;PMS5003;62336;-26.094;27.994;2022-09-09T08:17:08;46;46;
73973;PMS5003;62336;-26.094;27.994;2022-09-09T08:19:34;52;49;
73973;PMS5003;62336;-26.094;27.994;2022-09-09T08:21:59;55;52;
73973;PMS5003;62336;-26.094;27.994;2022-09-09T08:24:24;54;50;
73973;PMS5003;62336;-26.094;27.994;2022-09-09T08:26:50;55;54;
73973;PMS5003;62336;-26.094;27.994;2022-09-09T08:29:15;49;48;
73973;PMS5003;62336;-26.094;27.994;2022-09-09T08:31:41;54;52;
73973;PMS5003;62336;-26.094;27.994;2022-09-09T08:34:06;49;47;
73973;PMS5003;62336;-26.094;27.994;2022-09-09T08:36:33;48;43;
73973;PMS5003;62336;-26.094;27.994;2022-09-09T08:38:57;54;48;
73973;PMS5003;62336;-26.094;27.994;2022-09-09T08:41:32;44;40;
73973;PMS5003;62336;-26.094;27.994;2022-09-09T08:43:48;46;44;
73973;PMS5003;62336;-26.094;27.994;2022-09-09T08:46:14;40;38;
73973;PMS5003;62336;-26.094;27.994;2022-09-09T08:48:43;42;40;
73973;PMS5003;62336;-26.094;27.994;2022-09-09T08:51:04;47;43;
73973;PMS5003;62336;-26.094;27.994;2022-09-09T08:53:33;43;39;
73973;PMS5003;62336;-26.094;27.994;2022-09-09T08:55:56;43;41;
73973;PMS5003;62336;-26.094;27.994;2022-09-09T08:58:21;38;38;
73973;PMS5003;62336;-26.094;27.994;2022-09-09T09:03:13;37;37;
73973;PMS5003;62336;-26.094;27.994;2022-09-09T09:05:37;46;42;
73973;PMS5003;62336;-26.094;27.994;2022-09-09T09:08:05;43;40;
73973;PMS5003;62336;-26.094;27.994;2022-09-09T09:10:33;44;41;
73973;PMS5003;62336;-26.094;27.994;2022-09-09T09:12:54;43;42;
73973;PMS5003;62336;-26.094;27.994;2022-09-09T09:15:21;38;37;
73973;PMS5003;62336;-26.094;27.994;2022-09-09T09:17:44;38;36;
73973;PMS5003;62336;-26.094;27.994;2022-09-09T09:20:12;38;37;
73973;PMS5003;62336;-26.094;27.994;2022-09-09T09:22:43;39;39;
73973;PMS5003;62336;-26.094;27.994;2022-09-09T09:25:02;48;46;
73973;PMS5003;62336;-26.094;27.994;2022-09-09T09:27:28;43;40;
73973;PMS5003;62336;-26.094;27.994;2022-09-09T09:29:52;37;36;
73973;PMS5003;62336;-26.094;27.994;2022-09-09T09:32:18;44;41;
73973;PMS5003;62336;-26.094;27.994;2022-09-09T09:37:12;42;39;
73973;PMS5003;62336;-26.094;27.994;2022-09-09T09:39:33;39;37;
73973;PMS5003;62336;-26.094;27.994;2022-09-09T09:41:58;39;38;
73973;PMS5003;62336;-26.094;27.994;2022-09-09T09:44:24;38;36;
73973;PMS5003;62336;-26.094;27.994;2022-09-09T09:46:48;36;33;
73973;PMS5003;62336;-26.094;27.994;2022-09-09T09:49:14;39;38;
73973;PMS5003;62336;-26.094;27.994;2022-09-09T09:51:39;37;35;
73973;PMS5003;62336;-26.094;27.994;2022-09-09T09:54:07;40;38;
73973;PMS5003;62336;-26.094;27.994;2022-09-09T09:56:29;37;33;
73973;PMS5003;62336;-26.094;27.994;2022-09-09T09:58:55;37;34;
73973;PMS5003;62336;-26.094;27.994;2022-09-09T10:01:21;40;38;
73973;PMS5003;62336;-26.094;27.994;2022-09-09T10:03:50;32;31;
73973;PMS5003;62336;-26.094;27.994;2022-09-09T10:06:13;37;36;
73973;PMS5003;62336;-26.094;27.994;2022-09-09T10:11:22;35;34;
73973;PMS5003;62336;-26.094;27.994;2022-09-09T10:13:30;33;32;
73973;PMS5003;62336;-26.094;27.994;2022-09-09T10:15:57;31;30;
73973;PMS5003;62336;-26.094;27.994;2022-09-09T10:18:22;37;35;
73973;PMS5003;62336;-26.094;27.994;2022-09-09T10:20:45;34;33;
73973;PMS5003;62336;-26.094;27.994;2022-09-09T10:23:13;32;31;
73973;PMS5003;62336;-26.094;27.994;2022-09-09T10:25:38;24;24;
73973;PMS5003;62336;-26.094;27.994;2022-09-09T10:28:13;29;29;
73973;PMS5003;62336;-26.094;27.994;2022-09-09T10:30:28;29;28;
73973;PMS5003;62336;-26.094;27.994;2022-09-09T10:32:54;29;28;
73973;PMS5003;62336;-26.094;27.994;2022-09-09T10:35:25;32;29;
73973;PMS5003;62336;-26.094;27.994;2022-09-09T10:37:48;35;32;
73973;PMS5003;62336;-26.094;27.994;2022-09-09T10:40:14;28;28;
73973;PMS5003;62336;-26.094;27.994;2022-09-09T10:42:34;32;32;
73973;PMS5003;62336;-26.094;27.994;2022-09-09T10:45:02;33;33;
73973;PMS5003;62336;-26.094;27.994;2022-09-09T10:47:33;33;32;
73973;PMS5003;62336;-26.094;27.994;2022-09-09T10:50:03;34;31;
73973;PMS5003;62336;-26.094;27.994;2022-09-09T10:52:22;33;33;
73973;PMS5003;62336;-26.094;27.994;2022-09-09T10:54:47;31;30;
73973;PMS5003;62336;-26.094;27.994;2022-09-09T10:57:13;32;30;
73973;PMS5003;62336;-26.094;27.994;2022-09-09T10:59:34;32;31;
73973;PMS5003;62336;-26.094;27.994;2022-09-09T11:01:59;38;35;
73973;PMS5003;62336;-26.094;27.994;2022-09-09T11:04:26;32;32;
73973;PMS5003;62336;-26.094;27.994;2022-09-09T11:06:51;34;32;
73973;PMS5003;62336;-26.094;27.994;2022-09-09T11:09:16;37;37;
73973;PMS5003;62336;-26.094;27.994;2022-09-09T11:11:42;35;33;
73973;PMS5003;62336;-26.094;27.994;2022-09-09T11:14:08;33;32;
73973;PMS5003;62336;-26.094;27.994;2022-09-09T11:16:33;35;33;
73973;PMS5003;62336;-26.094;27.994;2022-09-09T11:18:59;36;33;
73973;PMS5003;62336;-26.094;27.994;2022-09-09T11:21:24;37;35;
73973;PMS5003;62336;-26.094;27.994;2022-09-09T11:23:49;35;33;
73973;PMS5003;62336;-26.094;27.994;2022-09-09T11:26:14;35;34;
73973;PMS5003;62336;-26.094;27.994;2022-09-09T11:28:41;33;31;
73973;PMS5003;62336;-26.094;27.994;2022-09-09T11:31:08;29;29;
73973;PMS5003;62336;-26.094;27.994;2022-09-09T11:33:37;37;36;
73973;PMS5003;62336;-26.094;27.994;2022-09-09T11:35:58;33;30;
73973;PMS5003;62336;-26.094;27.994;2022-09-09T11:38:21;32;30;
73973;PMS5003;62336;-26.094;27.994;2022-09-09T11:40:45;32;29;
73973;PMS5003;62336;-26.094;27.994;2022-09-09T11:43:10;29;29;
73973;PMS5003;62336;-26.094;27.994;2022-09-09T11:45:35;30;29;
73973;PMS5003;62336;-26.094;27.994;2022-09-09T11:48:01;34;32;
73973;PMS5003;62336;-26.094;27.994;2022-09-09T11:50:29;30;30;
73973;PMS5003;62336;-26.094;27.994;2022-09-09T11:53:02;37;36;
73973;PMS5003;62336;-26.094;27.994;2022-09-09T11:57:42;32;31;
73973;PMS5003;62336;-26.094;27.994;2022-09-09T12:02:33;34;32;
73973;PMS5003;62336;-26.094;27.994;2022-09-09T12:04:59;31;31;
73973;PMS5003;62336;-26.094;27.994;2022-09-09T12:09:50;35;35;
73973;PMS5003;62336;-26.094;27.994;2022-09-09T12:13:51;31;31;
73973;PMS5003;62336;-26.094;27.994;2022-09-09T12:18:33;34;33;
73973;PMS5003;62336;-26.094;27.994;2022-09-09T12:21:01;31;31;
73973;PMS5003;62336;-26.094;27.994;2022-09-09T12:23:29;36;33;
73973;PMS5003;62336;-26.094;27.994;2022-09-09T12:25:54;31;30;
73973;PMS5003;62336;-26.094;27.994;2022-09-09T12:28:16;35;33;
73973;PMS5003;62336;-26.094;27.994;2022-09-09T12:30:43;31;30;
73973;PMS5003;62336;-26.094;27.994;2022-09-09T12:33:09;28;27;
73973;PMS5003;62336;-26.094;27.994;2022-09-09T12:35:31;32;29;
73973;PMS5003;62336;-26.094;27.994;2022-09-09T12:37:57;33;31;
73973;PMS5003;62336;-26.094;27.994;2022-09-09T12:40:22;32;31;
73973;PMS5003;62336;-26.094;27.994;2022-09-09T12:42:47;37;36;
73973;PMS5003;62336;-26.094;27.994;2022-09-09T12:45:16;34;33;
73973;PMS5003;62336;-26.094;27.994;2022-09-09T12:47:38;34;32;
73973;PMS5003;62336;-26.094;27.994;2022-09-09T12:50:03;35;34;
73973;PMS5003;62336;-26.094;27.994;2022-09-09T12:52:30;35;34;
73973;PMS5003;62336;-26.094;27.994;2022-09-09T12:54:54;32;29;
73973;PMS5003;62336;-26.094;27.994;2022-09-09T12:57:19;33;33;
73973;PMS5003;62336;-26.094;27.994;2022-09-09T12:59:44;31;29;
73973;PMS5003;62336;-26.094;27.994;2022-09-09T13:02:16;33;31;
73973;PMS5003;62336;-26.094;27.994;2022-09-09T13:04:35;33;32;
73973;PMS5003;62336;-26.094;27.994;2022-09-09T13:09:26;41;38;
73973;PMS5003;62336;-26.094;27.994;2022-09-09T13:11:52;44;40;
73973;PMS5003;62336;-26.094;27.994;2022-09-09T13:14:17;34;32;
73973;PMS5003;62336;-26.094;27.994;2022-09-09T13:16:42;35;32;
73973;PMS5003;62336;-26.094;27.994;2022-09-09T13:19:08;33;30;
73973;PMS5003;62336;-26.094;27.994;2022-09-09T13:21:34;33;32;
73973;PMS5003;62336;-26.094;27.994;2022-09-09T13:23:58;33;32;
73973;PMS5003;62336;-26.094;27.994;2022-09-09T13:26:25;31;30;
73973;PMS5003;62336;-26.094;27.994;2022-09-09T13:28:50;33;33;
73973;PMS5003;62336;-26.094;27.994;2022-09-09T13:31:20;33;33;
73973;PMS5003;62336;-26.094;27.994;2022-09-09T13:33:40;34;33;
73973;PMS5003;62336;-26.094;27.994;2022-09-09T13:36:06;34;34;
73973;PMS5003;62336;-26.094;27.994;2022-09-09T13:38:32;32;30;
73973;PMS5003;62336;-26.094;27.994;2022-09-09T13:40:57;35;34;
73973;PMS5003;62336;-26.094;27.994;2022-09-09T13:43:22;32;30;
73973;PMS5003;62336;-26.094;27.994;2022-09-09T13:50:38;32;30;
73973;PMS5003;62336;-26.094;27.994;2022-09-09T13:53:03;30;30;
73973;PMS5003;62336;-26.094;27.994;2022-09-09T13:55:28;30;28;
73973;PMS5003;62336;-26.094;27.994;2022-09-09T13:57:55;29;29;
73973;PMS5003;62336;-26.094;27.994;2022-09-09T14:00:19;31;28;
73973;PMS5003;62336;-26.094;27.994;2022-09-09T14:02:45;32;31;
73973;PMS5003;62336;-26.094;27.994;2022-09-09T14:05:10;30;29;
73973;PMS5003;62336;-26.094;27.994;2022-09-09T14:07:35;27;27;
73973;PMS5003;62336;-26.094;27.994;2022-09-09T14:10:00;33;32;
73973;PMS5003;62336;-26.094;27.994;2022-09-09T14:12:26;32;32;
73973;PMS5003;62336;-26.094;27.994;2022-09-09T14:14:51;33;33;
73973;PMS5003;62336;-26.094;27.994;2022-09-09T14:17:16;30;30;
73973;PMS5003;62336;-26.094;27.994;2022-09-09T14:19:47;29;26;
73973;PMS5003;62336;-26.094;27.994;2022-09-09T14:22:07;29;28;
73973;PMS5003;62336;-26.094;27.994;2022-09-09T14:24:33;27;27;
73973;PMS5003;62336;-26.094;27.994;2022-09-09T14:26:58;29;28;
73973;PMS5003;62336;-26.094;27.994;2022-09-09T14:29:23;32;31;
73973;PMS5003;62336;-26.094;27.994;2022-09-09T14:31:49;28;27;
73973;PMS5003;62336;-26.094;27.994;2022-09-09T14:34:15;32;31;
73973;PMS5003;62336;-26.094;27.994;2022-09-09T14:36:41;28;27;
73973;PMS5003;62336;-26.094;27.994;2022-09-09T14:39:07;31;30;
73973;PMS5003;62336;-26.094;27.994;2022-09-09T14:42:37;32;32;
73973;PMS5003;62336;-26.094;27.994;2022-09-09T14:45:01;28;27;
73973;PMS5003;62336;-26.094;27.994;2022-09-09T14:47:27;25;24;
73973;PMS5003;62336;-26.094;27.994;2022-09-09T14:49:53;28;28;
73973;PMS5003;62336;-26.094;27.994;2022-09-09T14:52:18;34;33;
73973;PMS5003;62336;-26.094;27.994;2022-09-09T14:54:43;28;27;
73973;PMS5003;62336;-26.094;27.994;2022-09-09T14:57:08;35;28;
73973;PMS5003;62336;-26.094;27.994;2022-09-09T14:59:34;32;32;
73973;PMS5003;62336;-26.094;27.994;2022-09-09T15:02:00;31;30;
73973;PMS5003;62336;-26.094;27.994;2022-09-09T15:04:25;33;33;
73973;PMS5003;62336;-26.094;27.994;2022-09-09T15:06:50;31;30;
73973;PMS5003;62336;-26.094;27.994;2022-09-09T15:09:17;29;28;
73973;PMS5003;62336;-26.094;27.994;2022-09-09T15:11:42;30;29;
73973;PMS5003;62336;-26.094;27.994;2022-09-09T15:14:08;35;33;
73973;PMS5003;62336;-26.094;27.994;2022-09-09T15:16:34;35;33;
73973;PMS5003;62336;-26.094;27.994;2022-09-09T15:18:58;31;31;
73973;PMS5003;62336;-26.094;27.994;2022-09-09T15:21:25;32;31;
73973;PMS5003;62336;-26.094;27.994;2022-09-09T15:23:48;40;37;
73973;PMS5003;62336;-26.094;27.994;2022-09-09T15:26:14;30;30;
73973;PMS5003;62336;-26.094;27.994;2022-09-09T15:28:39;39;36;
73973;PMS5003;62336;-26.094;27.994;2022-09-09T15:31:06;28;27;
73973;PMS5003;62336;-26.094;27.994;2022-09-09T15:33:29;33;30;
73973;PMS5003;62336;-26.094;27.994;2022-09-09T15:35:55;32;31;
73973;PMS5003;62336;-26.094;27.994;2022-09-09T15:38:21;31;29;
73973;PMS5003;62336;-26.094;27.994;2022-09-09T15:40:46;35;33;
73973;PMS5003;62336;-26.094;27.994;2022-09-09T15:43:12;33;32;
73973;PMS5003;62336;-26.094;27.994;2022-09-09T15:45:36;30;29;
73973;PMS5003;62336;-26.094;27.994;2022-09-09T15:48:02;28;27;
73973;PMS5003;62336;-26.094;27.994;2022-09-09T15:50:28;35;30;
73973;PMS5003;62336;-26.094;27.994;2022-09-09T15:52:52;34;32;
73973;PMS5003;62336;-26.094;27.994;2022-09-09T15:55:19;38;33;
73973;PMS5003;62336;-26.094;27.994;2022-09-09T15:57:44;32;30;
73973;PMS5003;62336;-26.094;27.994;2022-09-09T16:00:11;35;33;
73973;PMS5003;62336;-26.094;27.994;2022-09-09T16:02:35;40;33;
73973;PMS5003;62336;-26.094;27.994;2022-09-09T16:05:00;30;30;
73973;PMS5003;62336;-26.094;27.994;2022-09-09T16:07:26;36;34;